^^

Nearby METAR Reports

 

EGHH - Bournemouth Airp, United Kingdom
Distance from station: S 10mi, 17km
Updated: 22/08/2019 16:20
Few Clouds
Few Clouds
 Wind from WSW
Wind: WSW 13 mph , 20 km/h
Temperature: 21°C
Dew Point: 14°C
Humidity: 64%
Barometer: 1025 hPa
Clouds: Few Clouds
Visibility: 6 miles , 10 km
Cloud details: Few Clouds 914 m
2019/08/22 15:20 EGHH 221520Z 24011KT 9999 FEW030 21/14 Q1025
EGDM - Boscombe Down, United Kingdom
Distance from station: N 16mi, 26km
Updated: 22/08/2019 16:20
Mostly cloudy
Mostly cloudy
 Wind from WSW
Wind: WSW 13 mph , 20 km/h
Temperature: 22°C
Dew Point: 14°C
Humidity: 61%
Barometer: 1024 hPa
Clouds: Mostly cloudy
Visibility: 6 miles , 10 km
Cloud details: Mostly cloudy 1158 m
2019/08/22 15:20 EGDM 221520Z 24011KT 9999 BKN038 22/14 Q1024 NOSIG RMK BLU BLU
 
EGVP - Middle Wallop, United Kingdom
Distance from station: NE 17mi, 27km
Updated: 22/08/2019 16:21
Mostly cloudy
Mostly cloudy
 Wind from WSW
Wind: WSW 10 mph , 17 km/h
Temperature: 22°C
Dew Point: 13°C
Humidity: 57%
Barometer: 1024 hPa
Clouds: Mostly cloudy
Visibility: 6 miles , 10 km
Cloud details: Mostly cloudy 1158 m
2019/08/22 15:21 EGVP 221521Z 24009KT 9999 BKN038 22/13 Q1024 BLU
EGHI - Southampton Wx C, United Kingdom
Distance from station: E 19mi, 31km
Updated: 22/08/2019 16:20
Partly cloudy
Partly cloudy
 Wind from S
Wind: S 13 mph , 20 km/h
Temperature: 21°C
Dew Point: 12°C
Humidity: 57%
Barometer: 1025 hPa
Clouds: Partly cloudy
Visibility: 6 miles , 10 km
Cloud details: Partly cloudy 1158 m
2019/08/22 15:20 EGHI 221520Z 19011KT 150V240 9999 SCT038 21/12 Q1025
 
EGDY - Yeovilton (navy), United Kingdom
Distance from station: W 36mi, 58km
Updated: 22/08/2019 16:20
Mostly cloudy
Mostly cloudy
 Wind from SSW
Wind: SSW 14 mph , 22 km/h
Temperature: 21°C
Dew Point: 15°C
Humidity: 69%
Barometer: 1024 hPa
Clouds: Mostly cloudy
Visibility: 6 miles , 10 km
Cloud details: Few Clouds 853 m
Mostly cloudy 1067 m
2019/08/22 15:20 EGDY 221520Z 21012KT 9999 FEW028 BKN035 21/15 Q1024 NOSIG RMK BLU BLU
EGUO - Colerne Raf, United Kingdom
Distance from station: NNW 41mi, 66km
Updated: 14/02/2019 22:50
NOT Current
Clear
Clear
 Wind from ENE
Wind: ENE 1 mph , 2 km/h
Temperature: 1°C
Dew Point: 0°C
Humidity: 93%
Barometer: 1029 hPa
Summary: Clear
Visibility: greater than 7 miles , 10 km
2019/02/14 22:50 EGUO 142250Z 06001KT CAVOK 01/00 Q1029 BLU NOSIG
 
EGVO - Odiham Raf, United Kingdom
Distance from station: ENE 42mi, 68km
Updated: 22/08/2019 16:22
Mostly cloudy
Mostly cloudy
 Wind from SW
Wind: SW 12 mph , 19 km/h
Temperature: 21°C
Dew Point: 14°C
Humidity: 64%
Barometer: 1024 hPa
Clouds: Mostly cloudy
Visibility: 6 miles , 10 km
Cloud details: Mostly cloudy 1067 m
2019/08/22 15:22 EGVO 221522Z 22010KT 9999 BKN035 21/14 Q1024 NOSIG RMK BLU BLU
EGGD - Bristol/Lulsgate, United Kingdom
Distance from station: NW 50mi, 81km
Updated: 22/08/2019 16:20
Mostly cloudy
Mostly cloudy
 Wind from W
Wind: W 9 mph , 15 km/h
Temperature: 18°C
Dew Point: 15°C
Humidity: 83%
Barometer: 1025 hPa
Clouds: Mostly cloudy
Visibility: 6 miles , 10 km
Cloud details: Partly cloudy 792 m
Mostly cloudy 1097 m
2019/08/22 15:20 EGGD 221520Z 27008KT 9999 SCT026 BKN036 18/15 Q1025